createdAt,value
2023-03-29T00:02:30.416Z,3.70
2023-03-29T00:04:58.065Z,2.33
2023-03-29T00:07:26.122Z,3.03
2023-03-29T00:09:53.071Z,3.40
2023-03-29T00:12:19.892Z,2.25
2023-03-29T00:14:46.674Z,3.53
2023-03-29T00:17:13.616Z,2.40
2023-03-29T00:19:42.857Z,2.67
2023-03-29T00:22:09.827Z,5.65
2023-03-29T00:24:36.706Z,1.77
2023-03-29T00:27:03.823Z,2.60
2023-03-29T00:29:30.721Z,2.28
2023-03-29T00:31:57.509Z,3.75
2023-03-29T00:34:26.485Z,2.15
2023-03-29T00:36:53.228Z,4.57
2023-03-29T00:39:20.744Z,2.08
2023-03-29T00:41:49.770Z,1.67
2023-03-29T00:44:54.311Z,2.38
2023-03-29T00:47:43.304Z,2.10
2023-03-29T00:50:15.459Z,3.00
2023-03-29T00:52:46.396Z,2.30
2023-03-29T00:55:18.532Z,2.20
2023-03-29T00:57:46.925Z,2.25
2023-03-29T01:00:20.969Z,2.35
2023-03-29T01:02:54.264Z,2.10
2023-03-29T01:05:31.035Z,2.22
2023-03-29T01:08:03.050Z,3.65
2023-03-29T01:10:37.184Z,3.92
2023-03-29T01:13:09.708Z,2.35
2023-03-29T01:15:40.890Z,1.13
2023-03-29T01:20:53.917Z,1.55
2023-03-29T01:23:32.929Z,1.65
2023-03-29T01:26:18.917Z,2.53
2023-03-29T01:28:52.784Z,2.70
2023-03-29T01:31:27.058Z,1.60
2023-03-29T01:34:09.960Z,2.78
2023-03-29T01:36:43.273Z,1.30
2023-03-29T01:39:10.359Z,3.72
2023-03-29T01:41:40.226Z,2.80
2023-03-29T01:44:13.532Z,1.90
2023-03-29T01:46:47.028Z,2.28
2023-03-29T01:49:24.824Z,2.97
2023-03-29T01:51:59.843Z,3.20
2023-03-29T01:54:51.478Z,3.38
2023-03-29T01:57:22.953Z,1.27
2023-03-29T01:59:54.492Z,3.08
2023-03-29T02:02:23.625Z,2.33
2023-03-29T02:05:01.602Z,2.35
2023-03-29T02:07:31.314Z,2.33
2023-03-29T02:10:03.327Z,2.25
2023-03-29T02:12:30.401Z,1.50
2023-03-29T02:15:01.250Z,4.25
2023-03-29T02:17:32.094Z,1.35
2023-03-29T02:20:04.691Z,1.55
2023-03-29T02:22:42.224Z,2.15
2023-03-29T02:25:09.666Z,2.58
2023-03-29T02:27:38.553Z,2.75
2023-03-29T02:30:09.830Z,1.25
2023-03-29T02:32:55.568Z,2.20
2023-03-29T02:35:34.603Z,1.83
2023-03-29T02:38:04.827Z,1.30
2023-03-29T02:40:33.410Z,2.20
2023-03-29T02:43:02.649Z,2.47
2023-03-29T02:45:31.448Z,2.28
2023-03-29T02:48:03.638Z,1.42
2023-03-29T02:50:37.522Z,2.15
2023-03-29T02:53:13.379Z,2.58
2023-03-29T02:55:42.173Z,3.08
2023-03-29T02:58:09.235Z,2.25
2023-03-29T03:00:42.168Z,1.90
2023-03-29T03:03:10.332Z,3.60
2023-03-29T03:05:38.396Z,2.60
2023-03-29T03:08:07.524Z,3.97
2023-03-29T03:10:35.475Z,2.60
2023-03-29T03:13:04.023Z,2.38
2023-03-29T03:15:35.708Z,7.28
2023-03-29T03:20:33.495Z,4.50
2023-03-29T03:23:01.186Z,2.60
2023-03-29T03:25:28.769Z,4.85
2023-03-29T03:27:55.925Z,2.13
2023-03-29T03:30:24.537Z,2.30
2023-03-29T03:33:10.016Z,3.40
2023-03-29T03:35:57.331Z,3.28
2023-03-29T03:38:25.226Z,3.83
2023-03-29T03:40:57.963Z,3.38
2023-03-29T03:43:25.713Z,5.65
2023-03-29T03:45:52.759Z,9.48
2023-03-29T03:48:25.572Z,9.25
2023-03-29T03:51:01.462Z,9.32
2023-03-29T03:53:33.902Z,9.80
2023-03-29T03:56:13.544Z,8.05
2023-03-29T03:59:01.173Z,5.93
2023-03-29T04:01:33.950Z,7.18
2023-03-29T04:04:12.277Z,7.15
2023-03-29T04:06:43.741Z,6.97
2023-03-29T04:09:32.262Z,7.65
2023-03-29T04:12:25.778Z,4.38
2023-03-29T04:14:52.597Z,5.70
2023-03-29T04:17:21.584Z,6.13
2023-03-29T04:22:41.235Z,6.45
2023-03-29T04:25:08.812Z,5.07
2023-03-29T04:27:59.757Z,5.85
2023-03-29T04:30:55.433Z,5.53
2023-03-29T04:33:47.557Z,5.53
2023-03-29T04:36:16.011Z,5.05
2023-03-29T04:38:47.317Z,7.82
2023-03-29T04:41:15.696Z,5.43
2023-03-29T04:43:48.385Z,4.90
2023-03-29T04:46:26.612Z,5.25
2023-03-29T04:49:06.983Z,6.18
2023-03-29T04:51:37.502Z,7.63
2023-03-29T04:54:04.980Z,5.35
2023-03-29T04:56:41.277Z,6.93
2023-03-29T04:59:32.231Z,7.10
2023-03-29T05:02:03.175Z,6.35
2023-03-29T05:04:30.944Z,5.57
2023-03-29T05:07:06.678Z,5.13
2023-03-29T05:09:35.664Z,7.38
2023-03-29T05:12:04.565Z,6.82
2023-03-29T05:14:43.253Z,7.88
2023-03-29T05:17:10.344Z,6.90
2023-03-29T05:19:38.424Z,6.28
2023-03-29T05:22:06.912Z,5.80
2023-03-29T05:24:34.010Z,7.88
2023-03-29T05:27:06.465Z,7.03
2023-03-29T05:29:36.686Z,5.43
2023-03-29T05:32:23.001Z,10.18
2023-03-29T05:34:50.473Z,9.05
2023-03-29T05:37:17.888Z,9.57
2023-03-29T05:39:53.319Z,6.00
2023-03-29T05:42:36.388Z,9.65
2023-03-29T05:45:08.409Z,7.05
2023-03-29T05:47:36.135Z,14.07
2023-03-29T05:50:03.918Z,7.15
2023-03-29T05:52:31.030Z,7.32
2023-03-29T05:54:57.772Z,6.80
2023-03-29T05:57:25.628Z,10.18
2023-03-29T05:59:52.385Z,10.40
2023-03-29T06:02:20.062Z,9.50
2023-03-29T06:04:51.941Z,7.72
2023-03-29T06:07:24.766Z,8.07
2023-03-29T06:10:15.854Z,6.22
2023-03-29T06:12:47.794Z,7.72
2023-03-29T06:15:16.063Z,6.50
2023-03-29T06:17:59.261Z,12.00
2023-03-29T06:20:26.382Z,8.93
2023-03-29T06:22:58.712Z,9.18
2023-03-29T06:25:25.476Z,9.43
2023-03-29T06:27:52.407Z,13.43
2023-03-29T06:30:20.930Z,16.90
2023-03-29T06:32:53.393Z,16.35
2023-03-29T06:35:45.805Z,13.63
2023-03-29T06:38:16.556Z,13.73
2023-03-29T06:41:11.224Z,13.80
2023-03-29T06:44:10.644Z,16.50
2023-03-29T06:46:50.110Z,16.80
2023-03-29T06:49:17.003Z,16.33
2023-03-29T06:52:22.758Z,16.85
2023-03-29T06:54:50.731Z,15.70
2023-03-29T06:57:18.802Z,18.30
2023-03-29T06:59:46.576Z,14.30
2023-03-29T07:02:17.645Z,15.70
2023-03-29T07:04:48.798Z,15.70
2023-03-29T07:07:27.550Z,16.23
2023-03-29T07:10:09.027Z,13.90
2023-03-29T07:13:00.840Z,15.75
2023-03-29T07:15:30.094Z,14.55
2023-03-29T07:18:25.841Z,19.13
2023-03-29T07:20:52.995Z,23.50
2023-03-29T07:23:19.771Z,15.30
2023-03-29T07:25:47.591Z,12.73
2023-03-29T07:28:14.679Z,18.80
2023-03-29T07:30:41.506Z,19.67
2023-03-29T07:33:18.252Z,18.85
2023-03-29T07:35:55.337Z,23.00
2023-03-29T07:38:22.893Z,24.25
2023-03-29T07:40:56.357Z,18.88
2023-03-29T07:43:38.284Z,22.52
2023-03-29T07:46:06.298Z,21.40
2023-03-29T07:48:37.219Z,22.95
2023-03-29T07:51:07.612Z,22.23
2023-03-29T07:53:45.181Z,22.52
2023-03-29T07:56:51.087Z,17.27
2023-03-29T07:59:25.464Z,17.65
2023-03-29T08:02:02.291Z,18.23
2023-03-29T08:04:34.061Z,8.95
2023-03-29T08:07:21.374Z,11.35
2023-03-29T08:10:19.276Z,6.10
2023-03-29T08:12:50.401Z,5.13
2023-03-29T08:15:19.965Z,4.05
2023-03-29T08:17:47.274Z,3.30
2023-03-29T08:20:16.451Z,8.82
2023-03-29T08:22:46.431Z,5.35
2023-03-29T08:25:28.359Z,3.38
2023-03-29T08:27:55.492Z,4.60
2023-03-29T08:30:48.343Z,5.28
2023-03-29T08:33:15.731Z,4.63
2023-03-29T08:35:43.991Z,5.47
2023-03-29T08:38:19.049Z,5.50
2023-03-29T08:40:48.862Z,5.95
2023-03-29T08:43:45.698Z,4.10
2023-03-29T08:46:44.352Z,4.30
2023-03-29T08:49:27.604Z,3.75
2023-03-29T08:52:01.333Z,3.35
2023-03-29T08:54:43.555Z,4.75
2023-03-29T08:57:19.556Z,4.53
2023-03-29T08:59:53.705Z,3.58
2023-03-29T09:02:27.867Z,5.07
2023-03-29T09:05:29.468Z,4.40
2023-03-29T09:08:03.791Z,5.95
2023-03-29T09:10:42.489Z,6.18
2023-03-29T09:13:54.090Z,4.63
2023-03-29T09:16:32.899Z,6.22
2023-03-29T09:19:02.976Z,6.00
2023-03-29T09:21:46.826Z,4.05
2023-03-29T09:24:33.126Z,4.55
2023-03-29T09:27:15.372Z,6.30
2023-03-29T09:29:58.723Z,5.00
2023-03-29T09:33:08.437Z,4.60
2023-03-29T09:36:12.047Z,6.03
2023-03-29T09:38:42.810Z,6.88
2023-03-29T09:41:35.670Z,6.70
2023-03-29T09:44:20.588Z,4.30
2023-03-29T09:47:01.959Z,3.35
2023-03-29T09:49:36.607Z,6.97
2023-03-29T09:52:11.566Z,4.43
2023-03-29T09:54:39.238Z,4.25
2023-03-29T09:57:26.356Z,3.88
2023-03-29T09:59:54.509Z,4.53
2023-03-29T10:02:21.844Z,4.63
2023-03-29T10:05:03.955Z,8.23
2023-03-29T10:07:44.533Z,2.97
2023-03-29T10:10:22.218Z,2.97
2023-03-29T10:12:51.933Z,5.65
2023-03-29T10:15:29.301Z,3.90
2023-03-29T10:18:03.649Z,5.95
2023-03-29T10:20:30.799Z,4.18
2023-03-29T10:22:59.325Z,6.68
2023-03-29T10:25:31.571Z,4.88
2023-03-29T10:28:08.289Z,6.75
2023-03-29T10:30:39.129Z,6.10
2023-03-29T10:33:16.033Z,4.05
2023-03-29T10:35:43.694Z,5.45
2023-03-29T10:38:14.983Z,4.20
2023-03-29T10:40:48.180Z,5.72
2023-03-29T10:43:21.311Z,10.57
2023-03-29T10:45:49.504Z,5.00
2023-03-29T10:48:17.715Z,4.45
2023-03-29T10:50:50.498Z,3.97
2023-03-29T10:53:27.102Z,6.35
2023-03-29T10:56:42.034Z,4.03
2023-03-29T10:59:09.333Z,3.60
2023-03-29T11:02:03.185Z,6.35
2023-03-29T11:04:57.442Z,7.72
2023-03-29T11:07:35.899Z,4.68
2023-03-29T11:10:40.185Z,6.07
2023-03-29T11:13:31.613Z,4.95
2023-03-29T11:16:26.541Z,5.82
2023-03-29T11:19:19.241Z,5.78
2023-03-29T11:22:01.224Z,6.40
2023-03-29T11:24:37.118Z,5.43
2023-03-29T11:27:31.302Z,3.78
2023-03-29T11:30:33.958Z,4.97
2023-03-29T11:33:29.886Z,7.10
2023-03-29T11:36:16.932Z,5.32
2023-03-29T11:39:04.516Z,5.88
2023-03-29T11:41:36.009Z,10.32
2023-03-29T11:44:02.682Z,6.70
2023-03-29T11:46:56.902Z,5.80
2023-03-29T11:49:30.095Z,8.43
2023-03-29T11:52:20.010Z,5.20
2023-03-29T11:54:53.226Z,7.40
2023-03-29T11:57:32.100Z,4.85
2023-03-29T12:00:12.443Z,4.63
2023-03-29T12:02:56.006Z,4.45
2023-03-29T12:05:31.114Z,4.50
2023-03-29T12:08:13.933Z,6.82
2023-03-29T12:10:58.170Z,7.30
2023-03-29T12:13:32.368Z,5.38
2023-03-29T12:16:05.944Z,6.63
2023-03-29T12:18:39.882Z,4.18
2023-03-29T12:21:14.713Z,7.40
2023-03-29T12:23:43.963Z,4.93
2023-03-29T12:26:29.011Z,5.18
2023-03-29T12:29:05.676Z,5.93
2023-03-29T12:31:51.300Z,5.43
2023-03-29T12:34:51.745Z,11.00
2023-03-29T12:37:32.939Z,9.02
2023-03-29T12:40:21.303Z,6.93
2023-03-29T12:43:29.132Z,6.90
2023-03-29T12:46:23.051Z,7.90
2023-03-29T12:48:55.019Z,6.75
2023-03-29T12:51:29.748Z,4.20
2023-03-29T12:54:03.620Z,5.40
2023-03-29T12:56:54.890Z,4.70
2023-03-29T12:59:38.460Z,6.32
2023-03-29T13:02:14.220Z,2.90
2023-03-29T13:04:43.850Z,6.20
2023-03-29T13:07:23.056Z,5.00
2023-03-29T13:09:53.137Z,6.90
2023-03-29T13:12:22.885Z,7.05
2023-03-29T13:14:55.944Z,5.03
2023-03-29T13:17:48.803Z,7.20
2023-03-29T13:20:43.387Z,6.00
2023-03-29T13:23:39.231Z,4.60
2023-03-29T13:26:39.676Z,3.88
2023-03-29T13:29:12.308Z,7.65
2023-03-29T13:32:17.761Z,4.90
2023-03-29T13:34:59.638Z,5.97
2023-03-29T13:37:46.830Z,9.00
2023-03-29T13:40:38.991Z,6.47
2023-03-29T13:43:25.204Z,5.72
2023-03-29T13:45:52.344Z,8.55
2023-03-29T13:48:27.234Z,9.13
2023-03-29T13:50:54.048Z,6.97
2023-03-29T13:53:35.201Z,8.77
2023-03-29T13:56:03.230Z,10.85
2023-03-29T13:58:51.511Z,9.35
2023-03-29T14:01:43.917Z,10.70
2023-03-29T14:04:20.264Z,7.90
2023-03-29T14:06:53.206Z,13.80
2023-03-29T14:09:23.657Z,9.70
2023-03-29T14:11:51.631Z,12.88
2023-03-29T14:14:24.155Z,12.07
2023-03-29T14:16:51.491Z,15.35
2023-03-29T14:19:37.605Z,9.90
2023-03-29T14:22:10.896Z,8.55
2023-03-29T14:24:40.569Z,7.93
2023-03-29T14:27:10.336Z,8.15
2023-03-29T14:29:37.522Z,12.98
2023-03-29T14:32:12.632Z,7.93
2023-03-29T14:34:40.236Z,9.57
2023-03-29T14:37:09.140Z,11.48
2023-03-29T14:39:36.543Z,9.27
2023-03-29T14:42:03.765Z,9.95
2023-03-29T14:44:33.464Z,8.75
2023-03-29T14:47:03.004Z,9.93
2023-03-29T14:49:31.801Z,5.15
2023-03-29T14:51:59.350Z,7.03
2023-03-29T14:54:29.008Z,12.63
2023-03-29T14:56:56.296Z,10.50
2023-03-29T14:59:32.078Z,6.40
2023-03-29T15:01:59.015Z,7.13
2023-03-29T15:04:35.726Z,9.02
2023-03-29T15:07:04.411Z,4.40
2023-03-29T15:09:34.308Z,7.80
2023-03-29T15:12:02.981Z,4.63
2023-03-29T15:14:34.030Z,7.32
2023-03-29T15:17:17.072Z,9.43
2023-03-29T15:19:43.810Z,6.97
2023-03-29T15:22:11.483Z,8.45
2023-03-29T15:24:47.535Z,8.70
2023-03-29T15:27:17.412Z,5.90
2023-03-29T15:29:46.928Z,12.30
2023-03-29T15:32:24.452Z,12.93
2023-03-29T15:35:02.907Z,13.50
2023-03-29T15:37:29.719Z,14.77
2023-03-29T15:39:57.190Z,8.50
2023-03-29T15:42:24.935Z,15.32
2023-03-29T15:44:56.265Z,18.33
2023-03-29T15:47:24.049Z,21.10
2023-03-29T15:49:50.944Z,19.25
2023-03-29T15:52:17.824Z,19.75
2023-03-29T15:54:44.568Z,16.20
2023-03-29T15:57:14.888Z,18.50
2023-03-29T15:59:43.486Z,17.05
2023-03-29T16:02:16.466Z,20.83
2023-03-29T16:04:43.799Z,23.08
2023-03-29T16:07:14.034Z,22.95
2023-03-29T16:09:40.925Z,22.48
2023-03-29T16:12:07.892Z,16.45
2023-03-29T16:14:34.925Z,17.08
2023-03-29T16:17:03.355Z,18.75
2023-03-29T16:19:31.799Z,14.77
2023-03-29T16:21:59.901Z,16.30
2023-03-29T16:24:29.215Z,19.15
2023-03-29T16:26:56.568Z,18.25
2023-03-29T16:29:24.946Z,21.02
2023-03-29T16:31:52.892Z,14.85
2023-03-29T16:34:20.599Z,15.30
2023-03-29T16:36:47.933Z,12.18
2023-03-29T16:39:15.973Z,22.17
2023-03-29T16:41:43.271Z,25.52
2023-03-29T16:44:20.054Z,19.42
2023-03-29T16:46:48.926Z,19.73
2023-03-29T16:49:18.474Z,19.85
2023-03-29T16:51:48.679Z,16.20
2023-03-29T16:54:17.229Z,15.65
2023-03-29T16:56:44.479Z,14.85
2023-03-29T16:59:12.226Z,15.27
2023-03-29T17:01:40.618Z,25.70
2023-03-29T17:04:08.840Z,23.58
2023-03-29T17:06:36.038Z,23.45
2023-03-29T17:09:05.146Z,23.33
2023-03-29T17:11:32.292Z,16.83
2023-03-29T17:13:59.265Z,14.50
2023-03-29T17:16:28.964Z,18.67
2023-03-29T17:19:00.354Z,20.88
2023-03-29T17:21:28.962Z,25.83
2023-03-29T17:23:55.675Z,20.75
2023-03-29T17:26:22.516Z,20.73
2023-03-29T17:28:49.531Z,25.65
2023-03-29T17:31:17.053Z,26.88
2023-03-29T17:33:43.714Z,23.42
2023-03-29T17:36:11.217Z,21.40
2023-03-29T17:38:38.308Z,22.10
2023-03-29T17:41:07.064Z,23.55
2023-03-29T17:43:34.152Z,19.80
2023-03-29T17:46:01.082Z,21.45
2023-03-29T17:48:28.448Z,21.75
2023-03-29T17:50:56.624Z,19.50
2023-03-29T17:53:23.616Z,19.45
2023-03-29T17:55:50.422Z,16.92
2023-03-29T17:58:17.225Z,19.20
2023-03-29T18:00:44.111Z,19.05
2023-03-29T18:03:11.746Z,18.35
2023-03-29T18:05:38.541Z,13.85
2023-03-29T18:08:05.474Z,17.30
2023-03-29T18:10:32.574Z,20.58
2023-03-29T18:12:59.382Z,18.55
2023-03-29T18:15:26.144Z,27.60
2023-03-29T18:17:53.099Z,28.15
2023-03-29T18:20:20.853Z,22.05
2023-03-29T18:22:47.827Z,28.85
2023-03-29T18:25:14.973Z,25.73
2023-03-29T18:27:41.776Z,34.35
2023-03-29T18:30:09.017Z,40.45
2023-03-29T18:32:36.790Z,40.50
2023-03-29T18:35:03.965Z,33.85
2023-03-29T18:37:31.113Z,35.85
2023-03-29T18:39:57.834Z,41.83
2023-03-29T18:42:24.685Z,31.88
2023-03-29T18:44:51.532Z,30.02
2023-03-29T18:47:18.494Z,25.80
2023-03-29T18:49:45.391Z,28.70
2023-03-29T18:52:13.493Z,26.02
2023-03-29T18:54:40.264Z,29.25
2023-03-29T18:57:07.162Z,46.75
2023-03-29T18:59:36.553Z,38.90
2023-03-29T19:02:04.044Z,30.42
2023-03-29T19:04:30.862Z,35.63
2023-03-29T19:06:57.864Z,52.35
2023-03-29T19:09:24.767Z,40.72
2023-03-29T19:11:51.712Z,35.00
2023-03-29T19:14:23.499Z,35.50
2023-03-29T19:16:51.529Z,33.38
2023-03-29T19:19:19.340Z,27.13
2023-03-29T19:21:50.144Z,27.80
2023-03-29T19:24:16.938Z,35.83
2023-03-29T19:26:44.479Z,38.97
2023-03-29T19:29:11.756Z,40.90
2023-03-29T19:31:38.970Z,37.55
2023-03-29T19:34:07.119Z,40.33
2023-03-29T19:36:33.941Z,43.20
2023-03-29T19:39:01.322Z,36.75
2023-03-29T19:41:28.503Z,33.83
2023-03-29T19:43:55.531Z,26.95
2023-03-29T19:46:22.558Z,27.67
2023-03-29T19:48:49.653Z,27.52
2023-03-29T19:51:16.817Z,25.98
2023-03-29T19:53:43.867Z,29.55
2023-03-29T19:56:11.158Z,32.55
2023-03-29T19:58:38.153Z,36.30
2023-03-29T20:01:05.184Z,26.52
2023-03-29T20:03:34.226Z,29.88
2023-03-29T20:06:01.574Z,27.65
2023-03-29T20:08:28.644Z,27.73
2023-03-29T20:11:14.745Z,25.00
2023-03-29T20:13:43.071Z,25.13
2023-03-29T20:16:12.871Z,21.33
2023-03-29T20:18:40.325Z,21.58
2023-03-29T20:21:08.486Z,17.80
2023-03-29T20:26:20.284Z,11.80
2023-03-29T20:28:47.597Z,7.47
2023-03-29T20:31:14.487Z,13.77
2023-03-29T20:33:42.404Z,15.32
2023-03-29T20:36:09.316Z,13.25
2023-03-29T20:38:36.354Z,16.65
2023-03-29T20:41:05.418Z,19.95
2023-03-29T20:43:37.520Z,16.42
2023-03-29T20:46:06.025Z,17.40
2023-03-29T20:48:32.787Z,17.58
2023-03-29T20:51:03.095Z,18.55
2023-03-29T20:53:34.266Z,11.63
2023-03-29T20:58:29.157Z,10.70
2023-03-29T21:00:59.135Z,9.07
2023-03-29T21:03:26.415Z,8.25
2023-03-29T21:05:55.299Z,12.50
2023-03-29T21:08:22.150Z,9.25
2023-03-29T21:10:49.022Z,10.98
2023-03-29T21:13:15.974Z,10.15
2023-03-29T21:15:43.797Z,7.47
2023-03-29T21:18:16.868Z,8.05
2023-03-29T21:20:45.410Z,9.93
2023-03-29T21:23:13.518Z,7.30
2023-03-29T21:25:41.015Z,5.82
2023-03-29T21:28:07.996Z,8.25
2023-03-29T21:30:34.819Z,10.68
2023-03-29T21:33:01.980Z,10.15
2023-03-29T21:35:29.090Z,8.05
2023-03-29T21:37:56.132Z,7.13
2023-03-29T21:40:23.768Z,6.47
2023-03-29T21:42:53.118Z,8.60
2023-03-29T21:45:19.947Z,5.32
2023-03-29T21:47:46.699Z,11.75
2023-03-29T21:50:13.854Z,11.32
2023-03-29T21:52:41.018Z,16.90
2023-03-29T21:55:08.419Z,12.90
2023-03-29T21:57:35.197Z,15.85
2023-03-29T22:00:02.693Z,16.48
2023-03-29T22:02:32.277Z,12.60
2023-03-29T22:04:59.304Z,13.20
2023-03-29T22:07:26.175Z,11.15
2023-03-29T22:09:53.028Z,10.90
2023-03-29T22:12:19.763Z,9.52
2023-03-29T22:14:47.460Z,5.85
2023-03-29T22:17:16.064Z,6.40
2023-03-29T22:19:43.500Z,9.45
2023-03-29T22:22:13.903Z,9.32
2023-03-29T22:24:41.588Z,8.43
2023-03-29T22:27:08.535Z,5.65
2023-03-29T22:29:35.468Z,7.60
2023-03-29T22:32:02.331Z,6.50
2023-03-29T22:34:30.134Z,6.75
2023-03-29T22:36:56.876Z,5.47
2023-03-29T22:39:23.684Z,5.95
2023-03-29T22:41:50.457Z,4.97
2023-03-29T22:44:17.198Z,5.80
2023-03-29T22:46:44.072Z,5.00
2023-03-29T22:49:11.513Z,7.78
2023-03-29T22:51:38.289Z,7.18
2023-03-29T22:54:05.156Z,6.53
2023-03-29T22:56:32.048Z,10.18
2023-03-29T22:58:58.908Z,8.68
2023-03-29T23:01:25.670Z,6.72
2023-03-29T23:03:52.511Z,5.93
2023-03-29T23:06:19.243Z,10.07
2023-03-29T23:08:46.040Z,10.23
2023-03-29T23:11:12.836Z,6.90
2023-03-29T23:13:39.967Z,7.55
2023-03-29T23:16:07.245Z,10.70
2023-03-29T23:18:37.859Z,9.32
2023-03-29T23:21:06.070Z,7.15
2023-03-29T23:23:33.720Z,5.45
2023-03-29T23:26:00.727Z,7.95
2023-03-29T23:28:34.772Z,6.55
2023-03-29T23:31:13.512Z,9.55
2023-03-29T23:33:42.772Z,7.00
2023-03-29T23:36:12.833Z,6.60
2023-03-29T23:38:40.018Z,6.22
2023-03-29T23:41:10.464Z,6.22
2023-03-29T23:43:42.850Z,6.57
2023-03-29T23:46:12.332Z,7.00
2023-03-29T23:48:39.404Z,7.22
2023-03-29T23:51:08.095Z,7.40
2023-03-29T23:53:34.962Z,6.03
2023-03-29T23:56:04.127Z,5.05
2023-03-29T23:58:34.064Z,5.68
